sensor_id;sensor_type;location;lat;lon;timestamp;pressure;altitude;pressure_sealevel;temperature;humidity
46408;BME280;32110;45.724;21.276;2023-07-13T00:02:07;100280.22;;;23.69;nan
46408;BME280;32110;45.724;21.276;2023-07-13T00:04:33;100304.44;;;23.86;nan
46408;BME280;32110;45.724;21.276;2023-07-13T00:06:58;100302.69;;;23.82;nan
46408;BME280;32110;45.724;21.276;2023-07-13T00:09:23;100302.38;;;23.74;nan
46408;BME280;32110;45.724;21.276;2023-07-13T00:11:55;100309.00;;;23.68;nan
46408;BME280;32110;45.724;21.276;2023-07-13T00:14:20;100300.47;;;23.66;nan
46408;BME280;32110;45.724;21.276;2023-07-13T00:16:46;100298.84;;;23.65;nan
46408;BME280;32110;45.724;21.276;2023-07-13T00:19:12;100294.28;;;23.57;nan
46408;BME280;32110;45.724;21.276;2023-07-13T00:21:41;100297.75;;;23.57;nan
46408;BME280;32110;45.724;21.276;2023-07-13T00:24:08;100307.72;;;23.57;nan
46408;BME280;32110;45.724;21.276;2023-07-13T00:26:38;100290.97;;;23.51;nan
46408;BME280;32110;45.724;21.276;2023-07-13T00:29:03;100288.41;;;23.55;nan
46408;BME280;32110;45.724;21.276;2023-07-13T00:31:30;100285.59;;;23.51;nan
46408;BME280;32110;45.724;21.276;2023-07-13T00:33:55;100289.38;;;23.50;nan
46408;BME280;32110;45.724;21.276;2023-07-13T00:36:21;100290.47;;;23.49;nan
46408;BME280;32110;45.724;21.276;2023-07-13T00:38:47;100289.38;;;23.50;nan
46408;BME280;32110;45.724;21.276;2023-07-13T00:41:12;100276.25;;;23.49;nan
46408;BME280;32110;45.724;21.276;2023-07-13T00:43:38;100287.47;;;23.51;nan
46408;BME280;32110;45.724;21.276;2023-07-13T00:48:38;100285.09;;;23.49;nan
46408;BME280;32110;45.724;21.276;2023-07-13T00:51:04;100286.81;;;23.45;nan
46408;BME280;32110;45.724;21.276;2023-07-13T00:53:31;100277.31;;;23.39;nan
46408;BME280;32110;45.724;21.276;2023-07-13T00:55:57;100281.44;;;23.36;nan
46408;BME280;32110;45.724;21.276;2023-07-13T00:58:25;100279.22;;;23.30;nan
46408;BME280;32110;45.724;21.276;2023-07-13T01:00:51;100280.78;;;23.22;nan
46408;BME280;32110;45.724;21.276;2023-07-13T01:03:16;100293.41;;;23.13;nan
46408;BME280;32110;45.724;21.276;2023-07-13T01:05:42;100287.03;;;23.00;nan
46408;BME280;32110;45.724;21.276;2023-07-13T01:08:08;100291.31;;;23.01;nan
46408;BME280;32110;45.724;21.276;2023-07-13T01:10:34;100293.09;;;22.83;nan
46408;BME280;32110;45.724;21.276;2023-07-13T01:13:05;100288.03;;;22.82;nan
46408;BME280;32110;45.724;21.276;2023-07-13T01:15:46;100289.78;;;22.86;nan
46408;BME280;32110;45.724;21.276;2023-07-13T01:18:15;100279.50;;;22.80;nan
46408;BME280;32110;45.724;21.276;2023-07-13T01:20:50;100266.09;;;22.80;nan
46408;BME280;32110;45.724;21.276;2023-07-13T01:23:15;100265.47;;;22.83;nan
46408;BME280;32110;45.724;21.276;2023-07-13T01:25:41;100286.94;;;22.83;nan
46408;BME280;32110;45.724;21.276;2023-07-13T01:28:07;100285.03;;;22.83;nan
46408;BME280;32110;45.724;21.276;2023-07-13T01:30:36;100273.53;;;22.83;nan
46408;BME280;32110;45.724;21.276;2023-07-13T01:33:05;100275.41;;;22.82;nan
46408;BME280;32110;45.724;21.276;2023-07-13T01:35:32;100293.59;;;22.85;nan
46408;BME280;32110;45.724;21.276;2023-07-13T01:37:58;100289.00;;;22.86;nan
46408;BME280;32110;45.724;21.276;2023-07-13T01:40:25;100289.31;;;22.84;nan
46408;BME280;32110;45.724;21.276;2023-07-13T01:42:51;100283.78;;;22.81;nan
46408;BME280;32110;45.724;21.276;2023-07-13T01:45:16;100279.19;;;22.81;nan
46408;BME280;32110;45.724;21.276;2023-07-13T01:47:42;100293.09;;;22.83;nan
46408;BME280;32110;45.724;21.276;2023-07-13T01:50:07;100288.22;;;22.85;nan
46408;BME280;32110;45.724;21.276;2023-07-13T01:52:33;100284.41;;;22.86;nan
46408;BME280;32110;45.724;21.276;2023-07-13T01:54:58;100268.44;;;22.81;nan
46408;BME280;32110;45.724;21.276;2023-07-13T01:57:23;100284.75;;;22.85;nan
46408;BME280;32110;45.724;21.276;2023-07-13T01:59:49;100281.56;;;22.83;nan
46408;BME280;32110;45.724;21.276;2023-07-13T02:02:14;100285.53;;;22.85;nan
46408;BME280;32110;45.724;21.276;2023-07-13T02:04:40;100271.91;;;22.82;nan
46408;BME280;32110;45.724;21.276;2023-07-13T02:07:05;100260.22;;;22.78;nan
46408;BME280;32110;45.724;21.276;2023-07-13T02:09:30;100249.78;;;22.76;nan
46408;BME280;32110;45.724;21.276;2023-07-13T02:11:56;100239.16;;;22.62;nan
46408;BME280;32110;45.724;21.276;2023-07-13T02:14:22;100261.16;;;22.73;nan
46408;BME280;32110;45.724;21.276;2023-07-13T02:16:47;100256.72;;;22.68;nan
46408;BME280;32110;45.724;21.276;2023-07-13T02:19:13;100257.22;;;22.70;nan
46408;BME280;32110;45.724;21.276;2023-07-13T02:21:39;100251.06;;;22.70;nan
46408;BME280;32110;45.724;21.276;2023-07-13T02:24:04;100239.34;;;22.66;nan
46408;BME280;32110;45.724;21.276;2023-07-13T02:26:30;100257.22;;;22.70;nan
46408;BME280;32110;45.724;21.276;2023-07-13T02:28:55;100246.28;;;22.67;nan
46408;BME280;32110;45.724;21.276;2023-07-13T02:31:20;100241.72;;;22.67;nan
46408;BME280;32110;45.724;21.276;2023-07-13T02:33:46;100232.69;;;22.63;nan
46408;BME280;32110;45.724;21.276;2023-07-13T02:36:12;100240.09;;;22.58;nan
46408;BME280;32110;45.724;21.276;2023-07-13T02:38:39;100236.75;;;22.52;nan
46408;BME280;32110;45.724;21.276;2023-07-13T02:41:06;100238.47;;;22.48;nan
46408;BME280;32110;45.724;21.276;2023-07-13T02:43:33;100262.03;;;22.60;nan
46408;BME280;32110;45.724;21.276;2023-07-13T02:45:59;100256.88;;;22.63;nan
46408;BME280;32110;45.724;21.276;2023-07-13T02:48:29;100245.44;;;22.58;nan
46408;BME280;32110;45.724;21.276;2023-07-13T02:50:55;100251.31;;;22.60;nan
46408;BME280;32110;45.724;21.276;2023-07-13T02:53:20;100255.25;;;22.62;nan
46408;BME280;32110;45.724;21.276;2023-07-13T02:55:46;100253.19;;;22.59;nan
46408;BME280;32110;45.724;21.276;2023-07-13T02:58:13;100266.19;;;22.66;nan
46408;BME280;32110;45.724;21.276;2023-07-13T03:00:42;100251.78;;;22.62;nan
46408;BME280;32110;45.724;21.276;2023-07-13T03:03:08;100244.06;;;22.60;nan
46408;BME280;32110;45.724;21.276;2023-07-13T03:05:33;100234.41;;;22.59;nan
46408;BME280;32110;45.724;21.276;2023-07-13T03:07:58;100245.44;;;22.58;nan
46408;BME280;32110;45.724;21.276;2023-07-13T03:10:24;100247.69;;;22.56;nan
46408;BME280;32110;45.724;21.276;2023-07-13T03:12:49;100245.59;;;22.52;nan
46408;BME280;32110;45.724;21.276;2023-07-13T03:15:14;100224.75;;;22.49;nan
46408;BME280;32110;45.724;21.276;2023-07-13T03:17:40;100220.16;;;22.50;nan
46408;BME280;32110;45.724;21.276;2023-07-13T03:20:06;100234.72;;;22.58;nan
46408;BME280;32110;45.724;21.276;2023-07-13T03:22:32;100217.97;;;22.52;nan
46408;BME280;32110;45.724;21.276;2023-07-13T03:24:57;100232.84;;;22.58;nan
46408;BME280;32110;45.724;21.276;2023-07-13T03:27:23;100240.56;;;22.60;nan
46408;BME280;32110;45.724;21.276;2023-07-13T03:29:48;100240.28;;;22.61;nan
46408;BME280;32110;45.724;21.276;2023-07-13T03:32:13;100234.59;;;22.63;nan
46408;BME280;32110;45.724;21.276;2023-07-13T03:34:39;100234.41;;;22.59;nan
46408;BME280;32110;45.724;21.276;2023-07-13T03:37:04;100252.28;;;22.64;nan
46408;BME280;32110;45.724;21.276;2023-07-13T03:39:30;100244.84;;;22.61;nan
46408;BME280;32110;45.724;21.276;2023-07-13T03:41:55;100243.38;;;22.55;nan
46408;BME280;32110;45.724;21.276;2023-07-13T03:44:21;100249.25;;;22.57;nan
46408;BME280;32110;45.724;21.276;2023-07-13T03:46:46;100260.97;;;22.61;nan
46408;BME280;32110;45.724;21.276;2023-07-13T03:49:12;100251.31;;;22.60;nan
46408;BME280;32110;45.724;21.276;2023-07-13T03:51:37;100258.44;;;22.64;nan
46408;BME280;32110;45.724;21.276;2023-07-13T03:54:03;100251.34;;;22.68;nan
46408;BME280;32110;45.724;21.276;2023-07-13T03:56:28;100262.09;;;22.68;nan
46408;BME280;32110;45.724;21.276;2023-07-13T03:58:55;100272.69;;;22.73;nan
46408;BME280;32110;45.724;21.276;2023-07-13T04:01:22;100267.03;;;22.75;nan
46408;BME280;32110;45.724;21.276;2023-07-13T04:03:48;100268.28;;;22.78;nan
46408;BME280;32110;45.724;21.276;2023-07-13T04:06:26;100255.47;;;22.75;nan
46408;BME280;32110;45.724;21.276;2023-07-13T04:08:54;100260.72;;;22.80;nan
46408;BME280;32110;45.724;21.276;2023-07-13T04:11:21;100258.19;;;22.83;nan
46408;BME280;32110;45.724;21.276;2023-07-13T04:13:47;100265.47;;;22.83;nan
46408;BME280;32110;45.724;21.276;2023-07-13T04:16:14;100255.16;;;22.76;nan
46408;BME280;32110;45.724;21.276;2023-07-13T04:18:40;100259.78;;;22.84;nan
46408;BME280;32110;45.724;21.276;2023-07-13T04:21:06;100260.09;;;22.83;nan
46408;BME280;32110;45.724;21.276;2023-07-13T04:23:32;100274.94;;;22.89;nan
46408;BME280;32110;45.724;21.276;2023-07-13T04:25:57;100277.34;;;22.90;nan
46408;BME280;32110;45.724;21.276;2023-07-13T04:28:24;100286.84;;;22.97;nan
46408;BME280;32110;45.724;21.276;2023-07-13T04:30:50;100297.00;;;23.00;nan
46408;BME280;32110;45.724;21.276;2023-07-13T04:33:16;100295.88;;;23.01;nan
46408;BME280;32110;45.724;21.276;2023-07-13T04:35:49;100273.94;;;22.99;nan
46408;BME280;32110;45.724;21.276;2023-07-13T04:38:19;100268.56;;;23.07;nan
46408;BME280;32110;45.724;21.276;2023-07-13T04:40:45;100248.78;;;23.03;nan
46408;BME280;32110;45.724;21.276;2023-07-13T04:43:10;100264.81;;;23.17;nan
46408;BME280;32110;45.724;21.276;2023-07-13T04:45:36;100265.47;;;23.23;nan
46408;BME280;32110;45.724;21.276;2023-07-13T04:48:01;100266.88;;;23.29;nan
46408;BME280;32110;45.724;21.276;2023-07-13T04:50:27;100255.50;;;23.32;nan
46408;BME280;32110;45.724;21.276;2023-07-13T04:52:52;100281.31;;;23.42;nan
46408;BME280;32110;45.724;21.276;2023-07-13T04:55:19;100287.16;;;23.52;nan
46408;BME280;32110;45.724;21.276;2023-07-13T04:57:45;100275.59;;;23.61;nan
46408;BME280;32110;45.724;21.276;2023-07-13T05:00:12;100257.13;;;23.68;nan
46408;BME280;32110;45.724;21.276;2023-07-13T05:02:39;100257.28;;;23.71;nan
46408;BME280;32110;45.724;21.276;2023-07-13T05:05:05;100275.16;;;23.85;nan
46408;BME280;32110;45.724;21.276;2023-07-13T05:07:31;100275.81;;;23.90;nan
46408;BME280;32110;45.724;21.276;2023-07-13T05:09:58;100286.88;;;23.97;nan
46408;BME280;32110;45.724;21.276;2023-07-13T05:12:24;100298.28;;;24.12;nan
46408;BME280;32110;45.724;21.276;2023-07-13T05:14:50;100302.22;;;24.23;nan
46408;BME280;32110;45.724;21.276;2023-07-13T05:17:15;100304.09;;;24.31;nan
46408;BME280;32110;45.724;21.276;2023-07-13T05:19:41;100298.22;;;24.38;nan
46408;BME280;32110;45.724;21.276;2023-07-13T05:22:06;100293.16;;;24.45;nan
46408;BME280;32110;45.724;21.276;2023-07-13T05:24:32;100307.72;;;24.53;nan
46408;BME280;32110;45.724;21.276;2023-07-13T05:26:57;100303.28;;;24.57;nan
46408;BME280;32110;45.724;21.276;2023-07-13T05:29:23;100306.72;;;24.66;nan
46408;BME280;32110;45.724;21.276;2023-07-13T05:31:49;100322.53;;;24.76;nan
46408;BME280;32110;45.724;21.276;2023-07-13T05:34:14;100319.06;;;24.76;nan
46408;BME280;32110;45.724;21.276;2023-07-13T05:36:40;100346.59;;;24.90;nan
46408;BME280;32110;45.724;21.276;2023-07-13T05:39:05;100360.34;;;24.97;nan
46408;BME280;32110;45.724;21.276;2023-07-13T05:41:31;100365.69;;;25.06;nan
46408;BME280;32110;45.724;21.276;2023-07-13T05:43:56;100378.00;;;25.16;nan
46408;BME280;32110;45.724;21.276;2023-07-13T05:46:22;100388.59;;;25.30;nan
46408;BME280;32110;45.724;21.276;2023-07-13T05:48:47;100396.97;;;25.37;nan
46408;BME280;32110;45.724;21.276;2023-07-13T05:51:13;100425.16;;;25.48;nan
46408;BME280;32110;45.724;21.276;2023-07-13T05:53:38;100424.97;;;25.53;nan
46408;BME280;32110;45.724;21.276;2023-07-13T05:56:04;100432.16;;;25.70;nan
46408;BME280;32110;45.724;21.276;2023-07-13T05:58:30;100403.56;;;25.78;nan
46408;BME280;32110;45.724;21.276;2023-07-13T06:01:04;100394.47;;;25.91;nan
46408;BME280;32110;45.724;21.276;2023-07-13T06:03:30;100399.66;;;25.96;nan
46408;BME280;32110;45.724;21.276;2023-07-13T06:05:56;100406.97;;;25.96;nan
46408;BME280;32110;45.724;21.276;2023-07-13T06:08:21;100408.50;;;26.05;nan
46408;BME280;32110;45.724;21.276;2023-07-13T06:10:47;100378.41;;;26.16;nan
46408;BME280;32110;45.724;21.276;2023-07-13T06:13:12;100377.53;;;26.24;nan
46408;BME280;32110;45.724;21.276;2023-07-13T06:15:38;100393.44;;;26.38;nan
46408;BME280;32110;45.724;21.276;2023-07-13T06:18:03;100375.78;;;26.40;nan
46408;BME280;32110;45.724;21.276;2023-07-13T06:20:30;100381.72;;;26.55;nan
46408;BME280;32110;45.724;21.276;2023-07-13T06:22:55;100366.13;;;26.60;nan
46408;BME280;32110;45.724;21.276;2023-07-13T06:25:21;100376.94;;;26.72;nan
46408;BME280;32110;45.724;21.276;2023-07-13T06:27:46;100372.56;;;26.80;nan
46408;BME280;32110;45.724;21.276;2023-07-13T06:30:12;100363.91;;;26.87;nan
46408;BME280;32110;45.724;21.276;2023-07-13T06:32:37;100380.81;;;26.96;nan
46408;BME280;32110;45.724;21.276;2023-07-13T06:35:03;100396.47;;;27.03;nan
46408;BME280;32110;45.724;21.276;2023-07-13T06:37:29;100394.44;;;27.12;nan
46408;BME280;32110;45.724;21.276;2023-07-13T06:39:54;100403.13;;;27.17;nan
46408;BME280;32110;45.724;21.276;2023-07-13T06:42:19;100391.41;;;27.13;nan
46408;BME280;32110;45.724;21.276;2023-07-13T06:44:45;100413.22;;;27.42;nan
46408;BME280;32110;45.724;21.276;2023-07-13T06:47:10;100423.09;;;27.50;nan
46408;BME280;32110;45.724;21.276;2023-07-13T06:49:35;100412.50;;;27.57;nan
46408;BME280;32110;45.724;21.276;2023-07-13T06:52:01;100385.56;;;27.61;nan
46408;BME280;32110;45.724;21.276;2023-07-13T06:54:26;100355.16;;;27.51;nan
46408;BME280;32110;45.724;21.276;2023-07-13T06:56:52;100389.75;;;27.83;nan
46408;BME280;32110;45.724;21.276;2023-07-13T06:59:17;100372.03;;;27.85;nan
46408;BME280;32110;45.724;21.276;2023-07-13T07:01:42;100379.66;;;27.95;nan
46408;BME280;32110;45.724;21.276;2023-07-13T07:04:08;100362.72;;;27.98;nan
46408;BME280;32110;45.724;21.276;2023-07-13T07:06:33;100365.31;;;28.07;nan
46408;BME280;32110;45.724;21.276;2023-07-13T07:08:59;100357.19;;;28.07;nan
46408;BME280;32110;45.724;21.276;2023-07-13T07:11:25;100356.69;;;28.17;nan
46408;BME280;32110;45.724;21.276;2023-07-13T07:13:52;100368.16;;;28.27;nan
46408;BME280;32110;45.724;21.276;2023-07-13T07:16:21;100367.22;;;28.35;nan
46408;BME280;32110;45.724;21.276;2023-07-13T07:18:47;100349.50;;;28.37;nan
46408;BME280;32110;45.724;21.276;2023-07-13T07:21:13;100374.72;;;28.54;nan
46408;BME280;32110;45.724;21.276;2023-07-13T07:23:38;100356.56;;;28.54;nan
46408;BME280;32110;45.724;21.276;2023-07-13T07:26:04;100345.47;;;28.59;nan
46408;BME280;32110;45.724;21.276;2023-07-13T07:28:30;100368.97;;;28.71;nan
46408;BME280;32110;45.724;21.276;2023-07-13T07:30:57;100365.91;;;28.73;nan
46408;BME280;32110;45.724;21.276;2023-07-13T07:33:23;100347.94;;;28.80;nan
46408;BME280;32110;45.724;21.276;2023-07-13T07:35:49;100353.31;;;28.96;nan
46408;BME280;32110;45.724;21.276;2023-07-13T07:38:15;100355.00;;;29.01;nan
46408;BME280;32110;45.724;21.276;2023-07-13T07:40:41;100344.78;;;29.10;nan
46408;BME280;32110;45.724;21.276;2023-07-13T07:43:08;100351.81;;;29.31;nan
46408;BME280;32110;45.724;21.276;2023-07-13T07:45:34;100355.13;;;29.40;nan
46408;BME280;32110;45.724;21.276;2023-07-13T07:47:59;100355.16;;;29.59;nan
46408;BME280;32110;45.724;21.276;2023-07-13T07:50:29;100347.56;;;29.65;nan
46408;BME280;32110;45.724;21.276;2023-07-13T07:52:54;100341.16;;;29.73;nan
46408;BME280;32110;45.724;21.276;2023-07-13T07:55:23;100336.66;;;29.81;nan
46408;BME280;32110;45.724;21.276;2023-07-13T07:57:50;100328.16;;;29.82;nan
46408;BME280;32110;45.724;21.276;2023-07-13T08:00:16;100316.28;;;29.90;nan
46408;BME280;32110;45.724;21.276;2023-07-13T08:02:41;100324.94;;;29.96;nan
46408;BME280;32110;45.724;21.276;2023-07-13T08:05:08;100317.94;;;29.95;nan
46408;BME280;32110;45.724;21.276;2023-07-13T08:07:35;100319.66;;;30.03;nan
46408;BME280;32110;45.724;21.276;2023-07-13T08:10:00;100315.47;;;30.09;nan
46408;BME280;32110;45.724;21.276;2023-07-13T08:12:26;100306.94;;;30.07;nan
46408;BME280;32110;45.724;21.276;2023-07-13T08:14:52;100300.81;;;30.14;nan
46408;BME280;32110;45.724;21.276;2023-07-13T08:17:19;100289.41;;;30.24;nan
46408;BME280;32110;45.724;21.276;2023-07-13T08:19:45;100294.25;;;30.35;nan
46408;BME280;32110;45.724;21.276;2023-07-13T08:22:11;100299.38;;;30.40;nan
46408;BME280;32110;45.724;21.276;2023-07-13T08:24:37;100292.09;;;30.44;nan
46408;BME280;32110;45.724;21.276;2023-07-13T08:27:03;100289.00;;;30.45;nan
46408;BME280;32110;45.724;21.276;2023-07-13T08:29:28;100297.34;;;30.56;nan
46408;BME280;32110;45.724;21.276;2023-07-13T08:31:57;100290.81;;;30.61;nan
46408;BME280;32110;45.724;21.276;2023-07-13T08:34:22;100294.31;;;30.61;nan
46408;BME280;32110;45.724;21.276;2023-07-13T08:36:48;100283.88;;;30.63;nan
46408;BME280;32110;45.724;21.276;2023-07-13T08:39:13;100289.00;;;30.68;nan
46408;BME280;32110;45.724;21.276;2023-07-13T08:41:39;100292.19;;;30.74;nan
46408;BME280;32110;45.724;21.276;2023-07-13T08:44:12;100286.38;;;30.76;nan
46408;BME280;32110;45.724;21.276;2023-07-13T08:46:42;100272.06;;;30.79;nan
46408;BME280;32110;45.724;21.276;2023-07-13T08:49:15;100283.06;;;30.86;nan
46408;BME280;32110;45.724;21.276;2023-07-13T08:54:15;100276.19;;;30.92;nan
46408;BME280;32110;45.724;21.276;2023-07-13T08:56:45;100269.47;;;30.86;nan
46408;BME280;32110;45.724;21.276;2023-07-13T08:59:15;100274.31;;;30.96;nan
46408;BME280;32110;45.724;21.276;2023-07-13T09:05:04;100272.47;;;31.04;nan
46408;BME280;32110;45.724;21.276;2023-07-13T09:07:57;100275.97;;;31.04;nan
46408;BME280;32110;45.724;21.276;2023-07-13T09:13:03;100276.38;;;31.06;nan
46408;BME280;32110;45.724;21.276;2023-07-13T09:15:35;100283.91;;;31.16;nan
46408;BME280;32110;45.724;21.276;2023-07-13T09:18:16;100268.31;;;31.13;nan
46408;BME280;32110;45.724;21.276;2023-07-13T09:21:00;100280.19;;;31.28;nan
46408;BME280;32110;45.724;21.276;2023-07-13T09:23:32;100278.72;;;31.34;nan
46408;BME280;32110;45.724;21.276;2023-07-13T09:26:13;100276.00;;;31.34;nan
46408;BME280;32110;45.724;21.276;2023-07-13T09:28:43;100279.19;;;31.40;nan
46408;BME280;32110;45.724;21.276;2023-07-13T09:31:20;100262.41;;;31.34;nan
46408;BME280;32110;45.724;21.276;2023-07-13T09:33:48;100269.19;;;31.48;nan
46408;BME280;32110;45.724;21.276;2023-07-13T09:36:28;100284.50;;;31.60;nan
46408;BME280;32110;45.724;21.276;2023-07-13T09:39:27;100287.72;;;31.69;nan
46408;BME280;32110;45.724;21.276;2023-07-13T09:42:03;100281.53;;;31.72;nan
46408;BME280;32110;45.724;21.276;2023-07-13T09:44:37;100291.44;;;31.87;nan
46408;BME280;32110;45.724;21.276;2023-07-13T09:47:12;100287.66;;;31.95;nan
46408;BME280;32110;45.724;21.276;2023-07-13T09:49:41;100290.44;;;32.03;nan
46408;BME280;32110;45.724;21.276;2023-07-13T09:52:12;100288.50;;;32.03;nan
46408;BME280;32110;45.724;21.276;2023-07-13T09:54:37;100272.16;;;32.03;nan
46408;BME280;32110;45.724;21.276;2023-07-13T09:57:12;100284.66;;;32.08;nan
46408;BME280;32110;45.724;21.276;2023-07-13T09:59:44;100292.81;;;32.08;nan
46408;BME280;32110;45.724;21.276;2023-07-13T10:02:26;100282.72;;;32.08;nan
46408;BME280;32110;45.724;21.276;2023-07-13T10:04:57;100271.53;;;32.17;nan
46408;BME280;32110;45.724;21.276;2023-07-13T10:07:24;100271.16;;;32.22;nan
46408;BME280;32110;45.724;21.276;2023-07-13T10:09:57;100268.94;;;32.31;nan
46408;BME280;32110;45.724;21.276;2023-07-13T10:12:24;100261.94;;;32.34;nan
46408;BME280;32110;45.724;21.276;2023-07-13T10:14:58;100269.00;;;32.42;nan
46408;BME280;32110;45.724;21.276;2023-07-13T10:17:32;100264.75;;;32.45;nan
46408;BME280;32110;45.724;21.276;2023-07-13T10:20:04;100260.94;;;32.53;nan
46408;BME280;32110;45.724;21.276;2023-07-13T10:24:59;100252.53;;;32.72;nan
46408;BME280;32110;45.724;21.276;2023-07-13T10:27:44;100252.59;;;32.83;nan
46408;BME280;32110;45.724;21.276;2023-07-13T10:32:45;100247.56;;;32.92;nan
46408;BME280;32110;45.724;21.276;2023-07-13T10:35:16;100244.47;;;32.90;nan
46408;BME280;32110;45.724;21.276;2023-07-13T10:37:56;100247.63;;;32.99;nan
46408;BME280;32110;45.724;21.276;2023-07-13T10:40:30;100254.34;;;33.13;nan
46408;BME280;32110;45.724;21.276;2023-07-13T10:42:59;100239.56;;;33.17;nan
46408;BME280;32110;45.724;21.276;2023-07-13T10:45:33;100248.59;;;33.29;nan
46408;BME280;32110;45.724;21.276;2023-07-13T10:48:00;100232.97;;;33.25;nan
46408;BME280;32110;45.724;21.276;2023-07-13T10:50:33;100235.34;;;33.38;nan
46408;BME280;32110;45.724;21.276;2023-07-13T10:53:29;100226.81;;;33.46;nan
46408;BME280;32110;45.724;21.276;2023-07-13T10:55:57;100242.50;;;33.60;nan
46408;BME280;32110;45.724;21.276;2023-07-13T11:03:35;100240.94;;;33.74;nan
46408;BME280;32110;45.724;21.276;2023-07-13T11:08:56;100238.66;;;33.86;nan
46408;BME280;32110;45.724;21.276;2023-07-13T11:18:48;100231.69;;;34.10;nan
46408;BME280;32110;45.724;21.276;2023-07-13T11:21:18;100234.00;;;34.12;nan
46408;BME280;32110;45.724;21.276;2023-07-13T11:23:51;100234.41;;;34.14;nan
46408;BME280;32110;45.724;21.276;2023-07-13T11:26:52;100238.72;;;34.15;nan
46408;BME280;32110;45.724;21.276;2023-07-13T11:31:44;100219.56;;;34.08;nan
46408;BME280;32110;45.724;21.276;2023-07-13T11:34:18;100212.94;;;34.09;nan
46408;BME280;32110;45.724;21.276;2023-07-13T11:36:47;100222.72;;;34.10;nan
46408;BME280;32110;45.724;21.276;2023-07-13T11:39:19;100223.09;;;34.19;nan
46408;BME280;32110;45.724;21.276;2023-07-13T11:41:52;100207.47;;;34.30;nan
46408;BME280;32110;45.724;21.276;2023-07-13T11:44:22;100204.75;;;34.30;nan
46408;BME280;32110;45.724;21.276;2023-07-13T11:47:00;100208.22;;;34.45;nan
46408;BME280;32110;45.724;21.276;2023-07-13T11:49:30;100212.91;;;34.52;nan
46408;BME280;32110;45.724;21.276;2023-07-13T11:51:56;100198.44;;;34.55;nan
46408;BME280;32110;45.724;21.276;2023-07-13T11:54:26;100205.50;;;34.63;nan
46408;BME280;32110;45.724;21.276;2023-07-13T11:56:54;100208.25;;;34.70;nan
46408;BME280;32110;45.724;21.276;2023-07-13T11:59:22;100201.97;;;34.73;nan
46408;BME280;32110;45.724;21.276;2023-07-13T12:01:53;100193.78;;;34.77;nan
46408;BME280;32110;45.724;21.276;2023-07-13T12:04:25;100201.16;;;34.87;nan
46408;BME280;32110;45.724;21.276;2023-07-13T12:07:07;100190.97;;;34.88;nan
46408;BME280;32110;45.724;21.276;2023-07-13T12:09:37;100195.28;;;34.96;nan
46408;BME280;32110;45.724;21.276;2023-07-13T12:12:03;100184.31;;;35.00;nan
46408;BME280;32110;45.724;21.276;2023-07-13T12:14:35;100179.22;;;35.02;nan
46408;BME280;32110;45.724;21.276;2023-07-13T12:17:00;100190.94;;;35.06;nan
46408;BME280;32110;45.724;21.276;2023-07-13T12:19:27;100187.81;;;35.11;nan
46408;BME280;32110;45.724;21.276;2023-07-13T12:21:56;100176.88;;;35.11;nan
46408;BME280;32110;45.724;21.276;2023-07-13T12:24:22;100194.81;;;35.23;nan
46408;BME280;32110;45.724;21.276;2023-07-13T12:26:59;100192.81;;;35.30;nan
46408;BME280;32110;45.724;21.276;2023-07-13T12:29:26;100188.94;;;35.17;nan
46408;BME280;32110;45.724;21.276;2023-07-13T12:31:51;100171.41;;;35.04;nan
46408;BME280;32110;45.724;21.276;2023-07-13T12:34:20;100177.59;;;35.19;nan
46408;BME280;32110;45.724;21.276;2023-07-13T12:36:51;100179.91;;;35.27;nan
46408;BME280;32110;45.724;21.276;2023-07-13T12:41:44;100170.47;;;35.39;nan
46408;BME280;32110;45.724;21.276;2023-07-13T12:44:18;100171.59;;;35.49;nan
46408;BME280;32110;45.724;21.276;2023-07-13T12:46:57;100162.56;;;35.52;nan
46408;BME280;32110;45.724;21.276;2023-07-13T12:49:27;100168.81;;;35.52;nan
46408;BME280;32110;45.724;21.276;2023-07-13T12:52:02;100164.47;;;35.58;nan
46408;BME280;32110;45.724;21.276;2023-07-13T12:54:29;100159.78;;;35.59;nan
46408;BME280;32110;45.724;21.276;2023-07-13T12:56:55;100165.56;;;35.72;nan
46408;BME280;32110;45.724;21.276;2023-07-13T12:59:25;100162.44;;;35.73;nan
46408;BME280;32110;45.724;21.276;2023-07-13T13:01:53;100154.59;;;35.75;nan
46408;BME280;32110;45.724;21.276;2023-07-13T13:04:18;100155.75;;;35.78;nan
46408;BME280;32110;45.724;21.276;2023-07-13T13:06:47;100163.53;;;35.83;nan
46408;BME280;32110;45.724;21.276;2023-07-13T13:09:16;100156.13;;;35.80;nan
46408;BME280;32110;45.724;21.276;2023-07-13T13:11:43;100165.84;;;35.92;nan
46408;BME280;32110;45.724;21.276;2023-07-13T13:14:11;100165.03;;;35.95;nan
46408;BME280;32110;45.724;21.276;2023-07-13T13:16:44;100154.44;;;35.97;nan
46408;BME280;32110;45.724;21.276;2023-07-13T13:21:39;100154.00;;;35.98;nan
46408;BME280;32110;45.724;21.276;2023-07-13T13:24:13;100154.81;;;35.99;nan
46408;BME280;32110;45.724;21.276;2023-07-13T13:26:40;100152.97;;;35.82;nan
46408;BME280;32110;45.724;21.276;2023-07-13T13:29:18;100155.38;;;35.76;nan
46408;BME280;32110;45.724;21.276;2023-07-13T13:31:43;100161.72;;;35.62;nan
46408;BME280;32110;45.724;21.276;2023-07-13T13:34:16;100156.63;;;35.68;nan
46408;BME280;32110;45.724;21.276;2023-07-13T13:36:42;100162.50;;;35.66;nan
46408;BME280;32110;45.724;21.276;2023-07-13T13:39:19;100146.88;;;35.63;nan
46408;BME280;32110;45.724;21.276;2023-07-13T13:41:45;100158.59;;;35.64;nan
46408;BME280;32110;45.724;21.276;2023-07-13T13:44:12;100160.09;;;35.72;nan